Time;durP1;ratioP1;P1;durP2;ratioP2;P2;SDS_P1;SDS_P2;PMS_P1;PMS_P2;Temp;Humidity;BMP_temperature;BMP_pressure;BME280_temperature;BME280_humidity;BME280_pressure;Samples;Min_cycle;Max_cycle;Signal;HPM_P1;HPM_P2
2022/10/03 00:01:18;;;;;;;;;;;;;;;-142.75;100.00;78080.41;5021500;28;19964;-69
2022/10/03 00:03:44;;;;;;;;;;;;;;;-142.75;100.00;78078.44;5021867;28;20282;-68
2022/10/03 00:06:09;;;;;;;;;;;;;;;-142.75;100.00;78076.47;5024970;28;19924;-69
2022/10/03 00:08:40;;;;;;;;;;;;;;;-142.75;100.00;78072.53;5021357;28;19918;-68
2022/10/03 00:11:14;;;;;;;;;;;;;;;-142.75;100.00;78084.34;5021586;28;19917;-68
2022/10/03 00:13:50;;;;;;;;;;;;;;;-142.75;100.00;78084.34;5022660;28;20520;-69
2022/10/03 00:16:15;;;;;;;;;;;;;;;-142.75;100.00;78084.34;5022162;28;19968;-69
2022/10/03 00:18:49;;;;;;;;;;;;;;;-142.75;100.00;78094.19;5052525;28;20566;-68
2022/10/03 00:21:23;;;;;;;;;;;;;;;-142.75;100.00;78092.22;5022667;28;19913;-68
2022/10/03 00:23:58;;;;;;;;;;;;;;;-142.75;100.00;78084.34;5023771;28;19917;-68
2022/10/03 00:26:44;;;;;;;;;;;;;;;-142.75;100.00;78086.31;5018318;28;19918;-67
2022/10/03 00:29:25;;;;;;;;;;;;;;;-142.75;100.00;78080.41;5010993;28;19920;-69
2022/10/03 00:31:50;;;;;;;;;;;;;;;-142.75;100.00;78082.38;5012290;28;19914;-69
2022/10/03 00:34:15;;;;;;;;;;;;;;;-142.75;100.00;78076.47;5012250;28;19921;-70
2022/10/03 00:36:59;;;;;;;;;;;;;;;-142.75;100.00;78072.53;5011946;28;19917;-69
2022/10/03 00:39:27;;;;;;;;;;;;;;;-142.75;100.00;78072.53;5012131;28;19988;-69
2022/10/03 00:42:12;;;;;;;;;;;;;;;-142.75;100.00;78082.38;5012094;28;19913;-69
2022/10/03 00:44:40;;;;;;;;;;;;;;;-142.75;100.00;78082.38;5012080;28;20408;-69
2022/10/03 00:47:11;;;;;;;;;;;;;;;-142.75;100.00;78090.25;5011934;28;19987;-69
2022/10/03 00:49:51;;;;;;;;;;;;;;;-142.75;100.00;78094.19;5011988;28;20342;-68
2022/10/03 00:52:19;;;;;;;;;;;;;;;-142.75;100.00;78092.22;5012027;28;19914;-68
2022/10/03 00:55:00;;;;;;;;;;;;;;;-142.75;100.00;78090.25;5012088;28;19914;-69
2022/10/03 00:57:47;;;;;;;;;;;;;;;-142.75;100.00;78102.06;5010443;28;20319;-69
2022/10/03 01:00:26;;;;;;;;;;;;;;;-142.75;100.00;78094.19;5010708;28;19963;-69
2022/10/03 01:03:10;;;;;;;;;;;;;;;-142.75;100.00;78090.25;5011821;28;19969;-69
2022/10/03 01:05:54;;;;;;;;;;;;;;;-142.75;100.00;78098.13;5011804;28;20403;-70
2022/10/03 01:08:34;;;;;;;;;;;;;;;-142.75;100.00;78102.06;5010283;28;19913;-69
2022/10/03 01:11:24;;;;;;;;;;;;;;;-142.75;100.00;78096.16;5011932;28;19953;-69
2022/10/03 01:14:11;;;;;;;;;;;;;;;-142.75;100.00;78092.22;5011856;28;19999;-69
2022/10/03 01:16:49;;;;;;;;;;;;;;;-142.75;100.00;78102.06;5014755;28;19936;-69
2022/10/03 01:19:33;;;;;;;;;;;;;;;-142.75;100.00;78100.09;5015341;28;19936;-70
2022/10/03 01:22:18;;;;;;;;;;;;;;;-142.75;100.00;78100.09;5015196;28;20379;-70
2022/10/03 01:24:49;;;;;;;;;;;;;;;-142.75;100.00;78127.66;5013906;28;19924;-69
2022/10/03 01:27:24;;;;;;;;;;;;;;;-142.75;100.00;78133.56;5014766;28;19971;-68
2022/10/03 01:32:51;;;;;;;;;;;;;;;-142.75;100.00;78145.38;5015051;28;19954;-69
2022/10/03 01:35:21;;;;;;;;;;;;;;;-142.75;100.00;78155.22;5015041;28;20342;-69
2022/10/03 01:38:03;;;;;;;;;;;;;;;-142.75;100.00;78149.31;5014682;28;19920;-69
2022/10/03 01:40:29;;;;;;;;;;;;;;;-142.75;100.00;78155.22;5014918;28;19913;-69
2022/10/03 01:42:57;;;;;;;;;;;;;;;-142.75;100.00;78153.25;5013535;28;20068;-69
2022/10/03 01:45:25;;;;;;;;;;;;;;;-142.75;100.00;78161.13;5014729;28;19917;-69
2022/10/03 01:48:04;;;;;;;;;;;;;;;-142.75;100.00;78165.06;5013310;28;19963;-69
2022/10/03 01:50:30;;;;;;;;;;;;;;;-142.75;100.00;78165.06;5014778;28;20389;-69
2022/10/03 01:52:55;;;;;;;;;;;;;;;-142.75;100.00;78172.94;5014652;28;20004;-70
2022/10/03 01:55:36;;;;;;;;;;;;;;;-142.75;100.00;78155.22;5014720;28;19959;-69
2022/10/03 01:58:04;;;;;;;;;;;;;;;-142.75;100.00;78149.31;5014228;28;20449;-68
2022/10/03 02:00:34;;;;;;;;;;;;;;;-142.75;100.00;78143.41;5014400;28;19914;-70
2022/10/03 02:03:14;;;;;;;;;;;;;;;-142.75;100.00;78151.28;5058576;22;19990;-69
2022/10/03 02:05:58;;;;;;;;;;;;;;;-142.75;100.00;78139.47;5052936;28;19917;-69
2022/10/03 02:08:27;;;;;;;;;;;;;;;-142.75;100.00;78139.47;5053533;28;19917;-69
2022/10/03 02:11:03;;;;;;;;;;;;;;;-142.75;100.00;78135.53;5054014;28;19958;-68
2022/10/03 02:13:37;;;;;;;;;;;;;;;-142.75;100.00;78133.56;5053925;28;19948;-68
2022/10/03 02:16:02;;;;;;;;;;;;;;;-142.75;100.00;78125.69;5052744;28;19913;-68
2022/10/03 02:18:27;;;;;;;;;;;;;;;-142.75;100.00;78123.72;5053544;28;19965;-68
2022/10/03 02:20:58;;;;;;;;;;;;;;;-142.75;100.00;78117.81;5053890;28;20139;-68
2022/10/03 02:23:32;;;;;;;;;;;;;;;-142.75;100.00;78106.00;5053791;28;20512;-69
2022/10/03 02:26:16;;;;;;;;;;;;;;;-142.75;100.00;78113.88;5051824;28;19966;-69
2022/10/03 02:28:51;;;;;;;;;;;;;;;-142.75;100.00;78096.16;5053322;28;19916;-69
2022/10/03 02:31:16;;;;;;;;;;;;;;;-142.75;100.00;78092.22;5053892;28;19912;-68
2022/10/03 02:33:43;;;;;;;;;;;;;;;-142.75;100.00;78090.25;5053745;28;19924;-69
2022/10/03 02:36:29;;;;;;;;;;;;;;;-142.75;100.00;78086.31;5052380;28;19994;-69
2022/10/03 02:39:17;;;;;;;;;;;;;;;-142.75;100.00;78086.31;5053371;28;20405;-69
2022/10/03 02:41:42;;;;;;;;;;;;;;;-142.75;100.00;78084.34;5053382;28;19913;-69
2022/10/03 02:44:27;;;;;;;;;;;;;;;-142.75;100.00;78080.41;5052068;28;19942;-69
2022/10/03 02:47:11;;;;;;;;;;;;;;;-142.75;100.00;78084.34;5053133;28;19958;-69
2022/10/03 02:50:07;;;;;;;;;;;;;;;-142.75;100.00;78090.25;5068604;28;19913;-69
2022/10/03 02:52:51;;;;;;;;;;;;;;;-142.75;100.00;78082.38;5053238;28;19913;-68
2022/10/03 02:55:31;;;;;;;;;;;;;;;-142.75;100.00;78090.25;5053159;28;19935;-68
2022/10/03 02:58:11;;;;;;;;;;;;;;;-142.75;100.00;78098.13;5052846;28;19913;-69
2022/10/03 03:00:45;;;;;;;;;;;;;;;-142.75;100.00;78113.88;5053080;28;19919;-68
2022/10/03 03:03:30;;;;;;;;;;;;;;;-142.75;100.00;78115.84;5052651;28;19916;-68
2022/10/03 03:05:55;;;;;;;;;;;;;;;-142.75;100.00;78127.66;5053020;28;20041;-69
2022/10/03 03:08:42;;;;;;;;;;;;;;;-142.75;100.00;78145.38;5052538;28;20410;-68
2022/10/03 03:11:26;;;;;;;;;;;;;;;-142.75;100.00;78165.06;5052944;28;19967;-68
2022/10/03 03:14:05;;;;;;;;;;;;;;;-142.75;100.00;78170.97;5052776;28;19912;-68
2022/10/03 03:16:36;;;;;;;;;;;;;;;-142.75;100.00;78169.00;5052685;28;19913;-69
2022/10/03 03:19:11;;;;;;;;;;;;;;;-142.75;100.00;78172.94;5052744;28;19912;-68
2022/10/03 03:21:43;;;;;;;;;;;;;;;-142.75;100.00;78165.06;5052696;28;20264;-69
2022/10/03 03:24:27;;;;;;;;;;;;;;;-142.75;100.00;78165.06;5052557;28;19923;-68
2022/10/03 03:27:12;;;;;;;;;;;;;;;-142.75;100.00;78165.06;5052336;28;19913;-68
2022/10/03 03:29:42;;;;;;;;;;;;;;;-142.75;100.00;78165.06;5052630;28;19913;-69
2022/10/03 03:32:10;;;;;;;;;;;;;;;-142.75;100.00;78176.88;5052528;28;19934;-68
2022/10/03 03:34:48;;;;;;;;;;;;;;;-142.75;100.00;78180.81;5051260;28;20412;-69
2022/10/03 03:37:40;;;;;;;;;;;;;;;-142.75;100.00;78192.66;5052120;28;19919;-69
2022/10/03 03:40:28;;;;;;;;;;;;;;;-142.75;100.00;78198.56;5036490;28;19920;-69
2022/10/03 03:43:08;;;;;;;;;;;;;;;-142.75;100.00;78208.41;5052361;28;19966;-68
2022/10/03 03:45:51;;;;;;;;;;;;;;;-142.75;100.00;78212.34;5051018;28;19970;-68
2022/10/03 03:48:26;;;;;;;;;;;;;;;-142.75;100.00;78216.28;5052134;28;19912;-68
2022/10/03 03:50:56;;;;;;;;;;;;;;;-142.75;100.00;78218.25;5051058;28;19913;-68
2022/10/03 03:53:33;;;;;;;;;;;;;;;-142.75;100.00;78218.25;5052154;28;20525;-68
2022/10/03 03:56:02;;;;;;;;;;;;;;;-142.75;100.00;78206.44;5050964;28;19984;-68
2022/10/03 03:58:31;;;;;;;;;;;;;;;-142.75;100.00;78206.44;5051835;28;19913;-68
2022/10/03 04:01:18;;;;;;;;;;;;;;;-142.75;100.00;78208.41;5050872;28;19916;-69
2022/10/03 04:04:07;;;;;;;;;;;;;;;-142.75;100.00;78204.47;5051926;28;20015;-68
2022/10/03 04:06:34;;;;;;;;;;;;;;;-142.75;100.00;78204.47;5032288;28;19966;-69
2022/10/03 04:09:11;;;;;;;;;;;;;;;-142.75;100.00;78202.50;5052071;28;19952;-68
2022/10/03 04:11:50;;;;;;;;;;;;;;;-142.75;100.00;78200.53;5052045;28;20298;-69
2022/10/03 04:14:27;;;;;;;;;;;;;;;-142.75;100.00;78196.59;5052189;28;20334;-68
2022/10/03 04:20:30;;;;;;;;;;;;;;;-142.75;100.00;78182.81;5034339;28;19967;-69
2022/10/03 04:22:59;;;;;;;;;;;;;;;-142.75;100.00;78178.84;5044643;28;19920;-68
2022/10/03 04:25:31;;;;;;;;;;;;;;;-142.75;100.00;78178.84;5051874;28;19927;-68
2022/10/03 04:28:06;;;;;;;;;;;;;;;-142.75;100.00;78165.06;5051649;28;20473;-68
2022/10/03 04:30:43;;;;;;;;;;;;;;;-142.75;100.00;78165.06;5051968;28;20332;-69
2022/10/03 04:33:11;;;;;;;;;;;;;;;-142.75;100.00;78163.09;5051818;28;20011;-69
2022/10/03 04:35:36;;;;;;;;;;;;;;;-142.75;100.00;78155.22;5050575;28;19935;-68
2022/10/03 04:38:04;;;;;;;;;;;;;;;-142.75;100.00;78153.25;5051058;28;19913;-69
2022/10/03 04:40:48;;;;;;;;;;;;;;;-142.75;100.00;78151.28;5051836;28;19917;-68
2022/10/03 04:43:17;;;;;;;;;;;;;;;-142.75;100.00;78149.31;5051745;28;19924;-68
2022/10/03 04:46:00;;;;;;;;;;;;;;;-142.75;100.00;78161.13;5051740;28;19940;-68
2022/10/03 04:48:27;;;;;;;;;;;;;;;-142.75;100.00;78161.13;5051423;28;20329;-68
2022/10/03 04:51:12;;;;;;;;;;;;;;;-142.75;100.00;78182.81;5054196;28;19917;-68
2022/10/03 04:53:40;;;;;;;;;;;;;;;-142.75;100.00;78204.47;5055487;28;20016;-68
2022/10/03 04:56:23;;;;;;;;;;;;;;;-142.75;100.00;78184.78;5055492;28;19913;-68
2022/10/03 04:59:14;;;;;;;;;;;;;;;-142.75;100.00;78163.09;5055169;28;20390;-68
2022/10/03 05:01:49;;;;;;;;;;;;;;;-142.75;100.00;78157.19;5031609;28;19959;-68
2022/10/03 05:04:20;;;;;;;;;;;;;;;-142.75;100.00;78151.28;5055333;28;19928;-69
2022/10/03 05:06:57;;;;;;;;;;;;;;;-142.75;100.00;78145.38;5053720;28;19928;-69
2022/10/03 05:09:31;;;;;;;;;;;;;;;-142.75;100.00;78143.41;5055241;28;19974;-68
2022/10/03 05:12:05;;;;;;;;;;;;;;;-142.75;100.00;78137.50;5055119;28;19912;-68
2022/10/03 05:14:42;;;;;;;;;;;;;;;-142.75;100.00;78147.34;5055244;28;19919;-68
2022/10/03 05:17:23;;;;;;;;;;;;;;;-142.75;100.00;78143.41;5054873;28;19920;-69
2022/10/03 05:20:07;;;;;;;;;;;;;;;-142.75;100.00;78133.56;5055026;28;19917;-68
2022/10/03 05:22:51;;;;;;;;;;;;;;;-142.75;100.00;78127.66;5054899;28;19917;-68
2022/10/03 05:25:24;;;;;;;;;;;;;;;-142.75;100.00;78133.56;5055015;28;19956;-68
2022/10/03 05:27:53;;;;;;;;;;;;;;;-142.75;100.00;78133.56;5054661;28;19916;-68
2022/10/03 05:30:24;;;;;;;;;;;;;;;-142.75;100.00;78123.72;5054863;28;19920;-68
2022/10/03 05:32:55;;;;;;;;;;;;;;;-142.75;100.00;78135.53;5054811;28;19959;-68
2022/10/03 05:35:20;;;;;;;;;;;;;;;-142.75;100.00;78133.56;5054821;28;19952;-68
2022/10/03 05:38:02;;;;;;;;;;;;;;;-142.75;100.00;78129.63;5046923;28;19964;-68
2022/10/03 05:40:33;;;;;;;;;;;;;;;-142.75;100.00;78137.50;5034778;28;19917;-68
2022/10/03 05:43:07;;;;;;;;;;;;;;;-142.75;100.00;78127.66;5034597;28;19924;-67
2022/10/03 05:45:58;;;;;;;;;;;;;;;-142.75;100.00;78123.72;5034577;28;19923;-67
2022/10/03 05:48:43;;;;;;;;;;;;;;;-142.75;100.00;78111.91;5034354;28;19920;-67
2022/10/03 05:51:32;;;;;;;;;;;;;;;-142.75;100.00;78109.94;5034498;28;19967;-67
2022/10/03 05:54:16;;;;;;;;;;;;;;;-142.75;100.00;78115.84;5034439;28;20004;-67
2022/10/03 05:57:00;;;;;;;;;;;;;;;-142.75;100.00;78129.63;5034153;28;19924;-67
2022/10/03 05:59:42;;;;;;;;;;;;;;;-142.75;100.00;78113.88;5034381;28;19917;-67
2022/10/03 06:02:07;;;;;;;;;;;;;;;-142.75;100.00;78113.88;5036581;28;19917;-67
2022/10/03 06:04:44;;;;;;;;;;;;;;;-142.75;100.00;78119.78;5034159;28;19921;-67
2022/10/03 06:07:17;;;;;;;;;;;;;;;-142.75;100.00;78123.72;5032696;28;19979;-67
2022/10/03 06:10:01;;;;;;;;;;;;;;;-142.75;100.00;78123.72;5032706;28;19913;-67
2022/10/03 06:12:36;;;;;;;;;;;;;;;-142.75;100.00;78125.69;5032811;28;19921;-67
2022/10/03 06:15:18;;;;;;;;;;;;;;;-142.75;100.00;78127.66;5032778;28;19913;-67
2022/10/03 06:17:46;;;;;;;;;;;;;;;-142.75;100.00;78135.53;5046327;28;19943;-67
2022/10/03 06:20:14;;;;;;;;;;;;;;;-142.75;100.00;78139.47;5053776;28;19917;-67
2022/10/03 06:22:57;;;;;;;;;;;;;;;-142.75;100.00;78155.22;5053801;28;19917;-67
2022/10/03 06:25:24;;;;;;;;;;;;;;;-142.75;100.00;78165.06;5052410;28;19917;-67
2022/10/03 06:27:55;;;;;;;;;;;;;;;-142.75;100.00;78169.00;5053485;28;19919;-67
2022/10/03 06:30:26;;;;;;;;;;;;;;;-142.75;100.00;78176.88;5052329;28;20011;-67
2022/10/03 06:33:03;;;;;;;;;;;;;;;-142.75;100.00;78178.84;5053552;28;19960;-66
2022/10/03 06:35:47;;;;;;;;;;;;;;;-142.75;100.00;78157.19;5052956;28;19913;-65
2022/10/03 06:38:30;;;;;;;;;;;;;;;-142.75;100.00;78155.22;5037188;28;19924;-67
2022/10/03 06:41:07;;;;;;;;;;;;;;;-142.75;100.00;78153.25;5033507;28;19920;-67
2022/10/03 06:43:52;;;;;;;;;;;;;;;-142.75;100.00;78153.25;5036480;28;19917;-67
2022/10/03 06:46:36;;;;;;;;;;;;;;;-142.75;100.00;78141.44;5052899;28;19917;-68
2022/10/03 06:49:20;;;;;;;;;;;;;;;-142.75;100.00;78145.38;5049165;28;19912;-67
2022/10/03 06:52:01;;;;;;;;;;;;;;;-142.75;100.00;78141.44;5051028;28;20338;-67
2022/10/03 06:54:45;;;;;;;;;;;;;;;-142.75;100.00;78135.53;5050961;28;19921;-67
2022/10/03 06:57:19;;;;;;;;;;;;;;;-142.75;100.00;78115.84;5037399;28;19921;-67
2022/10/03 06:59:51;;;;;;;;;;;;;;;-142.75;100.00;78115.84;5045868;28;19912;-67
2022/10/03 07:02:20;;;;;;;;;;;;;;;-142.75;100.00;78117.81;5051008;28;19952;-67
2022/10/03 07:04:54;;;;;;;;;;;;;;;-142.75;100.00;78113.88;5050898;28;19920;-67
2022/10/03 07:07:22;;;;;;;;;;;;;;;-142.75;100.00;78086.31;5052079;28;20007;-67
2022/10/03 07:09:52;;;;;;;;;;;;;;;-142.75;100.00;78052.81;5049319;28;19913;-67
2022/10/03 07:12:43;;;;;;;;;;;;;;;-142.75;100.00;78037.06;5050937;28;19948;-67
2022/10/03 07:15:10;;;;;;;;;;;;;;;-142.75;100.00;78037.06;5047741;28;20281;-67
2022/10/03 07:17:46;;;;;;;;;;;;;;;-142.75;100.00;78037.06;5048219;28;19920;-67
2022/10/03 07:20:14;;;;;;;;;;;;;;;-142.75;100.00;78021.31;5039977;28;19925;-66
2022/10/03 07:22:48;;;;;;;;;;;;;;;-142.75;100.00;78027.22;5047725;28;19923;-67
2022/10/03 07:25:31;;;;;;;;;;;;;;;-142.75;100.00;78017.38;5043779;28;19925;-67
2022/10/03 07:28:15;;;;;;;;;;;;;;;-142.75;100.00;78009.50;5037565;28;19935;-66
2022/10/03 07:30:49;;;;;;;;;;;;;;;-142.75;100.00;78007.53;5038335;28;19913;-67
2022/10/03 07:33:20;;;;;;;;;;;;;;;-142.75;100.00;77999.66;5037072;28;19929;-67
2022/10/03 07:38:57;;;;;;;;;;;;;;;-142.75;100.00;77993.75;5031447;28;19924;-66
2022/10/03 07:41:41;;;;;;;;;;;;;;;-142.75;100.00;77983.91;5051260;28;19912;-65
2022/10/03 07:44:28;;;;;;;;;;;;;;;-142.75;100.00;77978.00;5043161;28;20457;-66
2022/10/03 07:46:59;;;;;;;;;;;;;;;-142.75;100.00;77981.94;5064011;28;20279;-67
2022/10/03 07:49:25;;;;;;;;;;;;;;;-142.75;100.00;77979.97;5046502;28;19924;-66
2022/10/03 07:51:53;;;;;;;;;;;;;;;-142.75;100.00;77976.03;5031356;28;19920;-66
2022/10/03 07:54:30;;;;;;;;;;;;;;;-142.75;100.00;77960.28;5032862;28;19917;-65
2022/10/03 07:57:02;;;;;;;;;;;;;;;-142.75;100.00;77952.41;5032649;28;19959;-64
2022/10/03 07:59:33;;;;;;;;;;;;;;;-142.75;100.00;77944.53;5032529;28;20329;-67
2022/10/03 08:04:27;;;;;;;;;;;;;;;-142.75;100.00;77938.63;5053467;22;20375;-67
2022/10/03 08:07:11;;;;;;;;;;;;;;;-142.75;100.00;77920.91;5030598;28;19956;-68
2022/10/03 08:09:36;;;;;;;;;;;;;;;-142.75;100.00;77901.19;5032306;28;20000;-67
2022/10/03 08:12:13;;;;;;;;;;;;;;;-142.75;100.00;77909.06;5032152;28;19948;-68
2022/10/03 08:14:45;;;;;;;;;;;;;;;-142.75;100.00;77905.13;5011113;28;19913;-67
2022/10/03 08:17:28;;;;;;;;;;;;;;;-142.75;100.00;77881.50;5012060;28;19920;-68
2022/10/03 08:20:12;;;;;;;;;;;;;;;-142.75;100.00;77853.94;5012362;28;19914;-68
2022/10/03 08:22:44;;;;;;;;;;;;;;;-142.75;100.00;77834.25;5011000;28;19914;-70
2022/10/03 08:25:15;;;;;;;;;;;;;;;-142.75;100.00;77826.38;5013533;28;19925;-70
2022/10/03 08:27:43;;;;;;;;;;;;;;;-142.75;100.00;77814.56;5016046;28;20272;-70
2022/10/03 08:30:19;;;;;;;;;;;;;;;-142.75;100.00;77794.88;5016266;28;19919;-70
2022/10/03 08:32:50;;;;;;;;;;;;;;;-142.75;100.00;77787.00;4998539;28;19917;-70
2022/10/03 08:35:34;;;;;;;;;;;;;;;-142.75;100.00;77763.38;5016208;28;19917;-70
2022/10/03 08:38:18;;;;;;;;;;;;;;;-142.75;100.00;77735.81;5015820;28;19913;-70
2022/10/03 08:41:02;;;;;;;;;;;;;;;-142.75;100.00;77698.38;5016086;28;19914;-70
2022/10/03 08:43:42;;;;;;;;;;;;;;;-142.75;100.00;77657.03;5015926;28;19913;-70
2022/10/03 08:46:19;;;;;;;;;;;;;;;-142.75;100.00;77621.59;5015767;28;19922;-70
2022/10/03 08:48:55;;;;;;;;;;;;;;;-142.75;100.00;77613.72;5015652;28;19913;-71
2022/10/03 08:51:30;;;;;;;;;;;;;;;-142.75;100.00;77550.72;5015929;28;20326;-70
2022/10/03 08:54:04;;;;;;;;;;;;;;;-142.75;100.00;77527.09;5015921;28;19920;-71
2022/10/03 08:56:49;;;;;;;;;;;;;;;-142.75;100.00;77475.91;5015639;28;19921;-70
2022/10/03 08:59:23;;;;;;;;;;;;;;;-142.75;100.00;77475.91;5015163;28;20004;-71
2022/10/03 09:01:57;;;;;;;;;;;;;;;-142.75;100.00;77397.13;5015666;28;20010;-71
2022/10/03 09:04:41;;;;;;;;;;;;;;;-142.75;100.00;77365.63;5014148;28;20008;-71
2022/10/03 09:07:18;;;;;;;;;;;;;;;-142.75;100.00;77375.47;5015237;28;19921;-71
2022/10/03 09:09:52;;;;;;;;;;;;;;;-142.75;100.00;77338.06;4997928;28;19975;-71
2022/10/03 09:12:23;;;;;;;;;;;;;;;-142.75;100.00;77342.00;5015393;28;19914;-71
2022/10/03 09:14:49;;;;;;;;;;;;;;;-142.75;100.00;77347.91;5014220;28;19914;-71
2022/10/03 09:17:36;;;;;;;;;;;;;;;-142.75;100.00;77367.59;5014934;28;19914;-71
2022/10/03 09:20:07;;;;;;;;;;;;;;;-142.75;100.00;77408.94;5015420;28;19913;-71
2022/10/03 09:22:50;;;;;;;;;;;;;;;-142.75;100.00;77444.38;5015323;28;19913;-71
2022/10/03 09:25:22;;;;;;;;;;;;;;;-142.75;100.00;77442.41;5013868;28;20044;-70
2022/10/03 09:28:00;;;;;;;;;;;;;;;-142.75;100.00;77452.25;5013531;28;19921;-70
2022/10/03 09:30:43;;;;;;;;;;;;;;;-142.75;100.00;77473.94;5014961;28;19913;-68
2022/10/03 09:33:23;;;;;;;;;;;;;;;-142.75;100.00;77493.63;5015038;28;20334;-68
2022/10/03 09:35:58;;;;;;;;;;;;;;;-142.75;100.00;77468.03;5013238;28;20008;-68
2022/10/03 09:38:42;;;;;;;;;;;;;;;-142.75;100.00;77475.91;5014710;28;19920;-68
2022/10/03 09:41:22;;;;;;;;;;;;;;;-142.75;100.00;77483.78;5014836;28;19913;-67
2022/10/03 09:43:59;;;;;;;;;;;;;;;-142.75;100.00;77468.03;5014775;28;19913;-71
2022/10/03 09:46:43;;;;;;;;;;;;;;;-142.75;100.00;77452.25;5013468;28;19918;-71
2022/10/03 09:49:27;;;;;;;;;;;;;;;-142.75;100.00;77456.22;5014739;28;19913;-70
2022/10/03 09:52:06;;;;;;;;;;;;;;;-142.75;100.00;77471.97;5014762;28;19995;-71
2022/10/03 09:54:34;;;;;;;;;;;;;;;-142.75;100.00;77466.03;5014700;28;20299;-71
2022/10/03 09:57:03;;;;;;;;;;;;;;;-142.75;100.00;77460.13;5014260;28;20393;-71
2022/10/03 09:59:44;;;;;;;;;;;;;;;-142.75;100.00;77458.16;5014532;28;20367;-71
2022/10/03 10:02:28;;;;;;;;;;;;;;;-142.75;100.00;77468.03;5014362;28;19914;-71
2022/10/03 10:05:25;;;;;;;;;;;;;;;-142.75;100.00;77481.81;5014462;28;19925;-72
2022/10/03 10:08:09;;;;;;;;;;;;;;;-142.75;100.00;77493.63;4980953;28;19948;-71
2022/10/03 10:10:37;;;;;;;;;;;;;;;-142.75;100.00;77491.66;5014482;28;19913;-71
2022/10/03 10:13:27;;;;;;;;;;;;;;;-142.75;100.00;77485.75;5014239;28;19989;-70
2022/10/03 10:16:13;;;;;;;;;;;;;;;-142.75;100.00;77479.84;5014340;28;20403;-71
2022/10/03 10:19:02;;;;;;;;;;;;;;;-142.75;100.00;77479.84;5012776;28;19917;-68
2022/10/03 10:21:39;;;;;;;;;;;;;;;-142.75;100.00;77473.94;5012930;28;19913;-71
2022/10/03 10:24:23;;;;;;;;;;;;;;;-142.75;100.00;77477.88;5014338;28;20350;-70
2022/10/03 10:26:54;;;;;;;;;;;;;;;-142.75;100.00;77470.00;5013755;28;19921;-69
2022/10/03 10:29:28;;;;;;;;;;;;;;;-142.75;100.00;77483.78;5013959;28;19913;-70
2022/10/03 10:32:19;;;;;;;;;;;;;;;-142.75;100.00;77479.84;5013924;28;19955;-70
2022/10/03 10:35:04;;;;;;;;;;;;;;;-142.75;100.00;77477.88;5013908;28;20338;-70
2022/10/03 10:37:35;;;;;;;;;;;;;;;-142.75;100.00;77493.63;5013500;28;19914;-73
2022/10/03 10:40:06;;;;;;;;;;;;;;;-142.75;100.00;77495.59;5012688;28;19913;-72
2022/10/03 10:42:50;;;;;;;;;;;;;;;-142.75;100.00;77511.34;5013711;28;19918;-71
2022/10/03 10:45:34;;;;;;;;;;;;;;;-142.75;100.00;77523.16;5013635;28;20446;-71
2022/10/03 10:48:19;;;;;;;;;;;;;;;-142.75;100.00;77523.16;5012653;28;20406;-72
2022/10/03 10:51:09;;;;;;;;;;;;;;;-142.75;100.00;77527.09;5028923;28;19914;-71
2022/10/03 10:53:57;;;;;;;;;;;;;;;-142.75;100.00;77527.09;5013570;28;19921;-71
2022/10/03 10:56:26;;;;;;;;;;;;;;;-142.75;100.00;77534.97;5013241;28;19914;-71
2022/10/03 10:59:29;;;;;;;;;;;;;;;-142.75;100.00;77529.06;5012054;28;20063;-71
2022/10/03 11:02:04;;;;;;;;;;;;;;;-142.75;100.00;77531.03;4995956;28;19914;-71
2022/10/03 11:04:32;;;;;;;;;;;;;;;-142.75;100.00;77536.94;5013282;28;19921;-71
2022/10/03 11:06:57;;;;;;;;;;;;;;;-142.75;100.00;77542.84;5013043;28;19914;-70
2022/10/03 11:09:32;;;;;;;;;;;;;;;-142.75;100.00;77558.59;5012039;28;19921;-71
2022/10/03 11:12:16;;;;;;;;;;;;;;;-142.75;100.00;77566.47;5013113;28;19920;-71
2022/10/03 11:15:01;;;;;;;;;;;;;;;-142.75;100.00;77566.47;5013260;28;19933;-71
2022/10/03 11:17:36;;;;;;;;;;;;;;;-142.75;100.00;77574.34;5012647;28;20413;-71
2022/10/03 11:20:20;;;;;;;;;;;;;;;-142.75;100.00;77582.22;5012892;28;19917;-70
2022/10/03 11:22:55;;;;;;;;;;;;;;;-142.75;100.00;77576.31;5013055;28;19932;-71
2022/10/03 11:25:39;;;;;;;;;;;;;;;-142.75;100.00;77572.38;5011723;28;20383;-70
2022/10/03 11:28:17;;;;;;;;;;;;;;;-142.75;100.00;77586.16;5012626;28;19918;-71
2022/10/03 11:30:56;;;;;;;;;;;;;;;-142.75;100.00;77580.25;5012854;28;20423;-70
2022/10/03 11:33:21;;;;;;;;;;;;;;;-142.75;100.00;77574.34;5011667;28;19976;-70
2022/10/03 11:35:47;;;;;;;;;;;;;;;-142.75;100.00;77576.31;5011587;28;20382;-70
2022/10/03 11:38:19;;;;;;;;;;;;;;;-142.75;100.00;77574.34;5011298;28;20294;-70
2022/10/03 11:40:50;;;;;;;;;;;;;;;-142.75;100.00;77574.34;5012916;28;20275;-70
2022/10/03 11:43:15;;;;;;;;;;;;;;;-142.75;100.00;77566.47;5011470;28;19949;-70
2022/10/03 11:45:54;;;;;;;;;;;;;;;-142.75;100.00;77562.53;5012615;28;20437;-71
2022/10/03 11:48:30;;;;;;;;;;;;;;;-142.75;100.00;77562.53;5012355;28;19914;-70
2022/10/03 11:51:00;;;;;;;;;;;;;;;-142.75;100.00;77590.09;5012675;28;19917;-70
2022/10/03 11:53:33;;;;;;;;;;;;;;;-142.75;100.00;77582.22;4994938;28;19917;-70
2022/10/03 11:56:04;;;;;;;;;;;;;;;-142.75;100.00;77586.16;5012616;28;19914;-68
2022/10/03 11:58:42;;;;;;;;;;;;;;;-142.75;100.00;77592.06;5012062;28;19914;-70
2022/10/03 12:01:30;;;;;;;;;;;;;;;-142.75;100.00;77582.22;5012596;28;19913;-69
2022/10/03 12:03:55;;;;;;;;;;;;;;;-142.75;100.00;77576.31;4983971;28;20395;-70
2022/10/03 12:09:21;;;;;;;;;;;;;;;-142.75;100.00;77578.28;5012555;28;19920;-68
2022/10/03 12:11:59;;;;;;;;;;;;;;;-142.75;100.00;77570.41;5012473;28;19913;-68
2022/10/03 12:14:27;;;;;;;;;;;;;;;-142.75;100.00;77564.50;4994715;28;19967;-70
2022/10/03 12:17:06;;;;;;;;;;;;;;;-142.75;100.00;77574.34;5012147;28;19913;-70
2022/10/03 12:19:50;;;;;;;;;;;;;;;-142.75;100.00;77566.47;5012416;28;19917;-70
2022/10/03 12:22:29;;;;;;;;;;;;;;;-142.75;100.00;77562.53;5012253;28;20348;-70
2022/10/03 12:25:01;;;;;;;;;;;;;;;-142.75;100.00;77558.59;5012245;28;19964;-70
2022/10/03 12:27:35;;;;;;;;;;;;;;;-142.75;100.00;77554.66;5010745;28;19917;-71
2022/10/03 12:30:02;;;;;;;;;;;;;;;-142.75;100.00;77580.25;5012163;28;19917;-70
2022/10/03 12:32:43;;;;;;;;;;;;;;;-142.75;100.00;77566.47;4993475;28;19913;-70
2022/10/03 12:35:13;;;;;;;;;;;;;;;-142.75;100.00;77562.53;5011933;28;19917;-65
2022/10/03 12:37:38;;;;;;;;;;;;;;;-142.75;100.00;77556.63;5011916;28;19920;-69
2022/10/03 12:40:23;;;;;;;;;;;;;;;-142.75;100.00;77556.63;5027422;28;20256;-68
2022/10/03 12:42:48;;;;;;;;;;;;;;;-142.75;100.00;77560.56;5012043;28;19920;-68
2022/10/03 12:45:19;;;;;;;;;;;;;;;-142.75;100.00;77566.47;5027137;28;19918;-67
2022/10/03 12:48:07;;;;;;;;;;;;;;;-142.75;100.00;77558.59;5011661;28;19949;-68
2022/10/03 12:50:33;;;;;;;;;;;;;;;-142.75;100.00;77566.47;4994440;28;20375;-68
2022/10/03 12:53:16;;;;;;;;;;;;;;;-142.75;100.00;77556.63;5012284;28;19968;-68
2022/10/03 12:56:00;;;;;;;;;;;;;;;-142.75;100.00;77558.59;5027413;28;19918;-67
2022/10/03 12:58:28;;;;;;;;;;;;;;;-142.75;100.00;77548.75;5011822;28;19952;-68
2022/10/03 13:01:03;;;;;;;;;;;;;;;-142.75;100.00;77558.59;5012023;28;19913;-68
2022/10/03 13:03:50;;;;;;;;;;;;;;;-142.75;100.00;77558.59;5011919;28;19972;-68
2022/10/03 13:06:34;;;;;;;;;;;;;;;-142.75;100.00;77548.75;5011926;28;20302;-69
2022/10/03 13:09:15;;;;;;;;;;;;;;;-142.75;100.00;77542.84;5011934;28;19960;-68
2022/10/03 13:11:57;;;;;;;;;;;;;;;-142.75;100.00;77534.97;5013922;28;19913;-68
2022/10/03 13:14:22;;;;;;;;;;;;;;;-142.75;100.00;77538.91;5015457;28;19913;-68
2022/10/03 13:16:58;;;;;;;;;;;;;;;-142.75;100.00;77538.91;5030271;28;20296;-68
2022/10/03 13:19:28;;;;;;;;;;;;;;;-142.75;100.00;77527.09;5015384;28;19928;-68